sensor_id;sensor_type;location;lat;lon;timestamp;temperature;humidity
16732;DHT22;8484;50.904;9.192;2023-06-22T00:01:13;19.50;99.90
16732;DHT22;8484;50.904;9.192;2023-06-22T00:03:40;19.30;99.90
16732;DHT22;8484;50.904;9.192;2023-06-22T00:06:06;19.30;99.90
16732;DHT22;8484;50.904;9.192;2023-06-22T00:08:36;19.20;99.90
16732;DHT22;8484;50.904;9.192;2023-06-22T00:11:03;19.10;99.90
16732;DHT22;8484;50.904;9.192;2023-06-22T00:13:30;19.00;99.90
16732;DHT22;8484;50.904;9.192;2023-06-22T00:15:57;18.90;99.90
16732;DHT22;8484;50.904;9.192;2023-06-22T00:18:24;19.00;99.90
16732;DHT22;8484;50.904;9.192;2023-06-22T00:20:54;19.10;99.90
16732;DHT22;8484;50.904;9.192;2023-06-22T00:23:23;19.10;99.90
16732;DHT22;8484;50.904;9.192;2023-06-22T00:25:52;19.10;99.90
16732;DHT22;8484;50.904;9.192;2023-06-22T00:28:19;19.10;99.90
16732;DHT22;8484;50.904;9.192;2023-06-22T00:30:46;19.20;99.90
16732;DHT22;8484;50.904;9.192;2023-06-22T00:33:13;19.30;99.90
16732;DHT22;8484;50.904;9.192;2023-06-22T00:35:41;19.40;99.90
16732;DHT22;8484;50.904;9.192;2023-06-22T00:38:08;19.30;99.90
16732;DHT22;8484;50.904;9.192;2023-06-22T00:40:35;19.40;99.90
16732;DHT22;8484;50.904;9.192;2023-06-22T00:43:05;19.30;99.90
16732;DHT22;8484;50.904;9.192;2023-06-22T00:45:32;19.10;99.90
16732;DHT22;8484;50.904;9.192;2023-06-22T00:47:59;18.50;99.90
16732;DHT22;8484;50.904;9.192;2023-06-22T00:50:27;18.50;99.90
16732;DHT22;8484;50.904;9.192;2023-06-22T00:53:00;18.70;99.90
16732;DHT22;8484;50.904;9.192;2023-06-22T00:55:30;18.50;99.90
16732;DHT22;8484;50.904;9.192;2023-06-22T00:57:57;18.50;99.90
16732;DHT22;8484;50.904;9.192;2023-06-22T01:00:25;18.70;99.90
16732;DHT22;8484;50.904;9.192;2023-06-22T01:02:53;18.80;99.90
16732;DHT22;8484;50.904;9.192;2023-06-22T01:05:21;18.80;99.90
16732;DHT22;8484;50.904;9.192;2023-06-22T01:08:06;18.90;99.90
16732;DHT22;8484;50.904;9.192;2023-06-22T01:10:40;18.80;99.90
16732;DHT22;8484;50.904;9.192;2023-06-22T01:13:11;18.70;99.90
16732;DHT22;8484;50.904;9.192;2023-06-22T01:15:45;18.50;99.90
16732;DHT22;8484;50.904;9.192;2023-06-22T01:18:17;18.50;99.90
16732;DHT22;8484;50.904;9.192;2023-06-22T01:20:46;18.40;99.90
16732;DHT22;8484;50.904;9.192;2023-06-22T01:23:29;18.40;99.90
16732;DHT22;8484;50.904;9.192;2023-06-22T01:26:05;18.20;99.90
16732;DHT22;8484;50.904;9.192;2023-06-22T01:28:47;18.10;99.90
16732;DHT22;8484;50.904;9.192;2023-06-22T01:31:16;18.20;99.90
16732;DHT22;8484;50.904;9.192;2023-06-22T01:33:47;18.30;99.90
16732;DHT22;8484;50.904;9.192;2023-06-22T01:36:16;18.40;99.90
16732;DHT22;8484;50.904;9.192;2023-06-22T01:38:44;18.30;99.90
16732;DHT22;8484;50.904;9.192;2023-06-22T01:41:12;18.30;99.90
16732;DHT22;8484;50.904;9.192;2023-06-22T01:43:41;18.50;99.90
16732;DHT22;8484;50.904;9.192;2023-06-22T01:46:10;18.70;99.90
16732;DHT22;8484;50.904;9.192;2023-06-22T01:48:38;18.70;99.90
16732;DHT22;8484;50.904;9.192;2023-06-22T01:51:06;18.90;99.90
16732;DHT22;8484;50.904;9.192;2023-06-22T01:53:33;18.90;99.90
16732;DHT22;8484;50.904;9.192;2023-06-22T01:56:00;19.00;99.90
16732;DHT22;8484;50.904;9.192;2023-06-22T01:58:28;19.00;99.90
16732;DHT22;8484;50.904;9.192;2023-06-22T02:01:00;19.00;99.90
16732;DHT22;8484;50.904;9.192;2023-06-22T02:03:32;19.00;99.90
16732;DHT22;8484;50.904;9.192;2023-06-22T02:06:04;18.90;99.90
16732;DHT22;8484;50.904;9.192;2023-06-22T02:08:40;18.70;99.90
16732;DHT22;8484;50.904;9.192;2023-06-22T02:11:08;18.60;99.90
16732;DHT22;8484;50.904;9.192;2023-06-22T02:13:36;18.50;99.90
16732;DHT22;8484;50.904;9.192;2023-06-22T02:16:10;18.40;99.90
16732;DHT22;8484;50.904;9.192;2023-06-22T02:18:37;18.40;99.90
16732;DHT22;8484;50.904;9.192;2023-06-22T02:21:05;18.20;99.90
16732;DHT22;8484;50.904;9.192;2023-06-22T02:23:33;18.20;99.90
16732;DHT22;8484;50.904;9.192;2023-06-22T02:26:01;18.20;99.90
16732;DHT22;8484;50.904;9.192;2023-06-22T02:28:28;18.10;99.90
16732;DHT22;8484;50.904;9.192;2023-06-22T02:30:55;18.10;99.90
16732;DHT22;8484;50.904;9.192;2023-06-22T02:33:24;18.10;99.90
16732;DHT22;8484;50.904;9.192;2023-06-22T02:35:51;18.00;99.90
16732;DHT22;8484;50.904;9.192;2023-06-22T02:38:18;18.30;99.90
16732;DHT22;8484;50.904;9.192;2023-06-22T02:40:45;18.20;99.90
16732;DHT22;8484;50.904;9.192;2023-06-22T02:43:12;18.50;99.90
16732;DHT22;8484;50.904;9.192;2023-06-22T02:45:39;18.60;99.90
16732;DHT22;8484;50.904;9.192;2023-06-22T02:48:06;18.60;99.90
16732;DHT22;8484;50.904;9.192;2023-06-22T02:50:34;18.60;99.90
16732;DHT22;8484;50.904;9.192;2023-06-22T02:53:01;18.80;99.90
16732;DHT22;8484;50.904;9.192;2023-06-22T02:55:28;18.80;99.90
16732;DHT22;8484;50.904;9.192;2023-06-22T02:57:56;18.80;99.90
16732;DHT22;8484;50.904;9.192;2023-06-22T03:00:25;18.70;99.90
16732;DHT22;8484;50.904;9.192;2023-06-22T03:02:57;18.70;99.90
16732;DHT22;8484;50.904;9.192;2023-06-22T03:05:24;18.80;99.90
16732;DHT22;8484;50.904;9.192;2023-06-22T03:07:53;18.90;99.90
16732;DHT22;8484;50.904;9.192;2023-06-22T03:10:20;18.80;99.90
16732;DHT22;8484;50.904;9.192;2023-06-22T03:12:48;18.70;99.90
16732;DHT22;8484;50.904;9.192;2023-06-22T03:15:15;18.60;99.90
16732;DHT22;8484;50.904;9.192;2023-06-22T03:17:42;18.50;99.90
16732;DHT22;8484;50.904;9.192;2023-06-22T03:20:10;18.50;99.90
16732;DHT22;8484;50.904;9.192;2023-06-22T03:22:38;18.60;99.90
16732;DHT22;8484;50.904;9.192;2023-06-22T03:25:07;18.70;99.90
16732;DHT22;8484;50.904;9.192;2023-06-22T03:27:38;18.80;99.90
16732;DHT22;8484;50.904;9.192;2023-06-22T03:30:08;18.80;99.90
16732;DHT22;8484;50.904;9.192;2023-06-22T03:32:36;18.80;99.90
16732;DHT22;8484;50.904;9.192;2023-06-22T03:35:03;18.80;99.90
16732;DHT22;8484;50.904;9.192;2023-06-22T03:37:32;18.80;99.90
16732;DHT22;8484;50.904;9.192;2023-06-22T03:39:58;18.70;99.90
16732;DHT22;8484;50.904;9.192;2023-06-22T03:42:27;18.80;99.90
16732;DHT22;8484;50.904;9.192;2023-06-22T03:44:54;18.70;99.90
16732;DHT22;8484;50.904;9.192;2023-06-22T03:47:22;18.80;99.90
16732;DHT22;8484;50.904;9.192;2023-06-22T03:49:49;18.80;99.90
16732;DHT22;8484;50.904;9.192;2023-06-22T03:52:20;18.80;99.90
16732;DHT22;8484;50.904;9.192;2023-06-22T03:54:48;18.70;99.90
16732;DHT22;8484;50.904;9.192;2023-06-22T03:57:15;18.80;99.90
16732;DHT22;8484;50.904;9.192;2023-06-22T03:59:44;18.90;99.90
16732;DHT22;8484;50.904;9.192;2023-06-22T04:02:10;18.90;99.90
16732;DHT22;8484;50.904;9.192;2023-06-22T04:04:37;18.90;99.90
16732;DHT22;8484;50.904;9.192;2023-06-22T04:07:05;18.90;99.90
16732;DHT22;8484;50.904;9.192;2023-06-22T04:09:33;18.90;99.90
16732;DHT22;8484;50.904;9.192;2023-06-22T04:12:01;19.00;99.90
16732;DHT22;8484;50.904;9.192;2023-06-22T04:14:29;18.80;99.90
16732;DHT22;8484;50.904;9.192;2023-06-22T04:16:57;18.90;99.90
16732;DHT22;8484;50.904;9.192;2023-06-22T04:19:24;19.00;99.90
16732;DHT22;8484;50.904;9.192;2023-06-22T04:21:51;18.80;99.90
16732;DHT22;8484;50.904;9.192;2023-06-22T04:24:18;18.80;99.90
16732;DHT22;8484;50.904;9.192;2023-06-22T04:26:45;19.00;99.90
16732;DHT22;8484;50.904;9.192;2023-06-22T04:29:13;19.00;99.90
16732;DHT22;8484;50.904;9.192;2023-06-22T04:31:40;19.00;99.90
16732;DHT22;8484;50.904;9.192;2023-06-22T04:34:08;19.10;99.90
16732;DHT22;8484;50.904;9.192;2023-06-22T04:36:36;19.10;99.90
16732;DHT22;8484;50.904;9.192;2023-06-22T04:39:07;19.00;99.90
16732;DHT22;8484;50.904;9.192;2023-06-22T04:41:35;19.00;99.90
16732;DHT22;8484;50.904;9.192;2023-06-22T04:44:08;19.00;99.90
16732;DHT22;8484;50.904;9.192;2023-06-22T04:46:35;19.10;99.90
16732;DHT22;8484;50.904;9.192;2023-06-22T04:49:05;19.00;99.90
16732;DHT22;8484;50.904;9.192;2023-06-22T04:51:38;19.20;99.90
16732;DHT22;8484;50.904;9.192;2023-06-22T04:54:05;19.20;99.90
16732;DHT22;8484;50.904;9.192;2023-06-22T04:56:32;19.20;99.90
16732;DHT22;8484;50.904;9.192;2023-06-22T04:58:59;19.30;99.90
16732;DHT22;8484;50.904;9.192;2023-06-22T05:01:26;19.50;99.90
16732;DHT22;8484;50.904;9.192;2023-06-22T05:03:53;19.50;99.90
16732;DHT22;8484;50.904;9.192;2023-06-22T05:06:22;19.50;99.90
16732;DHT22;8484;50.904;9.192;2023-06-22T05:08:53;19.50;99.90
16732;DHT22;8484;50.904;9.192;2023-06-22T05:11:24;19.50;99.90
16732;DHT22;8484;50.904;9.192;2023-06-22T05:13:51;19.70;99.90
16732;DHT22;8484;50.904;9.192;2023-06-22T05:16:18;19.80;99.90
16732;DHT22;8484;50.904;9.192;2023-06-22T05:18:50;19.90;99.90
16732;DHT22;8484;50.904;9.192;2023-06-22T05:21:17;19.90;99.90
16732;DHT22;8484;50.904;9.192;2023-06-22T05:23:44;19.90;99.90
16732;DHT22;8484;50.904;9.192;2023-06-22T05:26:13;19.90;99.90
16732;DHT22;8484;50.904;9.192;2023-06-22T05:28:40;20.00;99.90
16732;DHT22;8484;50.904;9.192;2023-06-22T05:31:06;19.90;99.90
16732;DHT22;8484;50.904;9.192;2023-06-22T05:33:33;19.90;99.90
16732;DHT22;8484;50.904;9.192;2023-06-22T05:36:00;19.90;99.90
16732;DHT22;8484;50.904;9.192;2023-06-22T05:38:29;20.00;99.90
16732;DHT22;8484;50.904;9.192;2023-06-22T05:40:56;20.00;99.90
16732;DHT22;8484;50.904;9.192;2023-06-22T05:43:24;20.20;99.90
16732;DHT22;8484;50.904;9.192;2023-06-22T05:45:51;20.20;99.90
16732;DHT22;8484;50.904;9.192;2023-06-22T05:48:18;20.30;99.90
16732;DHT22;8484;50.904;9.192;2023-06-22T05:50:45;20.40;99.90
16732;DHT22;8484;50.904;9.192;2023-06-22T05:53:12;20.40;99.90
16732;DHT22;8484;50.904;9.192;2023-06-22T05:55:39;20.40;99.90
16732;DHT22;8484;50.904;9.192;2023-06-22T05:58:06;20.50;99.90
16732;DHT22;8484;50.904;9.192;2023-06-22T06:00:35;20.50;99.90
16732;DHT22;8484;50.904;9.192;2023-06-22T06:03:02;20.50;99.90
16732;DHT22;8484;50.904;9.192;2023-06-22T06:05:30;20.60;99.90
16732;DHT22;8484;50.904;9.192;2023-06-22T06:07:58;20.70;99.90
16732;DHT22;8484;50.904;9.192;2023-06-22T06:10:25;20.90;99.90
16732;DHT22;8484;50.904;9.192;2023-06-22T06:12:52;20.90;99.90
16732;DHT22;8484;50.904;9.192;2023-06-22T06:15:19;20.90;99.90
16732;DHT22;8484;50.904;9.192;2023-06-22T06:17:47;21.00;99.90
16732;DHT22;8484;50.904;9.192;2023-06-22T06:20:15;21.40;99.90
16732;DHT22;8484;50.904;9.192;2023-06-22T06:22:42;21.50;99.90
16732;DHT22;8484;50.904;9.192;2023-06-22T06:25:10;21.50;99.90
16732;DHT22;8484;50.904;9.192;2023-06-22T06:27:42;21.70;99.90
16732;DHT22;8484;50.904;9.192;2023-06-22T06:30:10;21.70;99.90
16732;DHT22;8484;50.904;9.192;2023-06-22T06:32:37;21.80;99.90
16732;DHT22;8484;50.904;9.192;2023-06-22T06:35:07;22.00;99.90
16732;DHT22;8484;50.904;9.192;2023-06-22T06:37:36;22.20;99.90
16732;DHT22;8484;50.904;9.192;2023-06-22T06:40:04;22.40;99.90
16732;DHT22;8484;50.904;9.192;2023-06-22T06:42:32;22.50;99.90
16732;DHT22;8484;50.904;9.192;2023-06-22T06:44:59;22.90;99.90
16732;DHT22;8484;50.904;9.192;2023-06-22T06:47:26;23.10;99.90
16732;DHT22;8484;50.904;9.192;2023-06-22T06:49:52;23.40;99.90
16732;DHT22;8484;50.904;9.192;2023-06-22T06:52:21;23.50;99.90
16732;DHT22;8484;50.904;9.192;2023-06-22T06:54:48;23.50;99.90
16732;DHT22;8484;50.904;9.192;2023-06-22T06:57:17;23.50;99.90
16732;DHT22;8484;50.904;9.192;2023-06-22T06:59:44;23.50;99.90
16732;DHT22;8484;50.904;9.192;2023-06-22T07:02:11;23.70;99.90
16732;DHT22;8484;50.904;9.192;2023-06-22T07:04:37;23.60;99.90
16732;DHT22;8484;50.904;9.192;2023-06-22T07:07:05;24.00;99.90
16732;DHT22;8484;50.904;9.192;2023-06-22T07:09:33;23.80;99.90
16732;DHT22;8484;50.904;9.192;2023-06-22T07:12:00;23.90;99.90
16732;DHT22;8484;50.904;9.192;2023-06-22T07:14:27;24.00;99.90
16732;DHT22;8484;50.904;9.192;2023-06-22T07:16:54;23.90;99.90
16732;DHT22;8484;50.904;9.192;2023-06-22T07:19:24;24.30;99.90
16732;DHT22;8484;50.904;9.192;2023-06-22T07:21:52;24.50;99.90
16732;DHT22;8484;50.904;9.192;2023-06-22T07:24:19;24.90;99.90
16732;DHT22;8484;50.904;9.192;2023-06-22T07:26:49;24.90;99.90
16732;DHT22;8484;50.904;9.192;2023-06-22T07:29:16;24.90;99.90
16732;DHT22;8484;50.904;9.192;2023-06-22T07:31:44;25.00;99.90
16732;DHT22;8484;50.904;9.192;2023-06-22T07:34:11;25.30;99.90
16732;DHT22;8484;50.904;9.192;2023-06-22T07:36:38;25.60;99.90
16732;DHT22;8484;50.904;9.192;2023-06-22T07:39:05;25.60;99.90
16732;DHT22;8484;50.904;9.192;2023-06-22T07:41:32;25.70;99.90
16732;DHT22;8484;50.904;9.192;2023-06-22T07:44:01;25.90;99.90
16732;DHT22;8484;50.904;9.192;2023-06-22T07:46:28;25.40;99.90
16732;DHT22;8484;50.904;9.192;2023-06-22T07:48:55;25.10;99.90
16732;DHT22;8484;50.904;9.192;2023-06-22T07:51:22;25.10;99.90
16732;DHT22;8484;50.904;9.192;2023-06-22T07:53:50;25.20;99.90
16732;DHT22;8484;50.904;9.192;2023-06-22T07:56:17;25.70;99.90
16732;DHT22;8484;50.904;9.192;2023-06-22T07:58:44;26.00;99.90
16732;DHT22;8484;50.904;9.192;2023-06-22T08:01:14;26.10;99.90
16732;DHT22;8484;50.904;9.192;2023-06-22T08:03:41;26.00;99.90
16732;DHT22;8484;50.904;9.192;2023-06-22T08:06:08;26.10;99.90
16732;DHT22;8484;50.904;9.192;2023-06-22T08:08:35;26.70;99.90
16732;DHT22;8484;50.904;9.192;2023-06-22T08:11:03;26.80;99.90
16732;DHT22;8484;50.904;9.192;2023-06-22T08:13:30;27.20;99.90
16732;DHT22;8484;50.904;9.192;2023-06-22T08:15:57;26.50;99.90
16732;DHT22;8484;50.904;9.192;2023-06-22T08:18:25;25.80;99.90
16732;DHT22;8484;50.904;9.192;2023-06-22T08:20:52;25.80;99.90
16732;DHT22;8484;50.904;9.192;2023-06-22T08:23:20;25.90;99.90
16732;DHT22;8484;50.904;9.192;2023-06-22T08:25:47;26.00;99.90
16732;DHT22;8484;50.904;9.192;2023-06-22T08:28:15;26.40;99.90
16732;DHT22;8484;50.904;9.192;2023-06-22T08:30:42;26.30;99.90
16732;DHT22;8484;50.904;9.192;2023-06-22T08:33:09;26.60;99.90
16732;DHT22;8484;50.904;9.192;2023-06-22T08:35:38;27.40;99.90
16732;DHT22;8484;50.904;9.192;2023-06-22T08:38:05;27.80;99.90
16732;DHT22;8484;50.904;9.192;2023-06-22T08:40:32;27.70;99.90
16732;DHT22;8484;50.904;9.192;2023-06-22T08:42:59;28.20;99.90
16732;DHT22;8484;50.904;9.192;2023-06-22T08:45:26;28.40;99.90
16732;DHT22;8484;50.904;9.192;2023-06-22T08:47:53;28.70;99.90
16732;DHT22;8484;50.904;9.192;2023-06-22T08:50:20;28.20;99.90
16732;DHT22;8484;50.904;9.192;2023-06-22T08:52:48;28.60;99.90
16732;DHT22;8484;50.904;9.192;2023-06-22T08:55:15;28.90;99.90
16732;DHT22;8484;50.904;9.192;2023-06-22T08:57:42;28.80;99.90
16732;DHT22;8484;50.904;9.192;2023-06-22T09:00:10;29.30;99.90
16732;DHT22;8484;50.904;9.192;2023-06-22T09:02:42;29.80;99.90
16732;DHT22;8484;50.904;9.192;2023-06-22T09:05:09;29.70;99.90
16732;DHT22;8484;50.904;9.192;2023-06-22T09:07:36;29.40;99.90
16732;DHT22;8484;50.904;9.192;2023-06-22T09:10:06;29.20;99.90
16732;DHT22;8484;50.904;9.192;2023-06-22T09:12:33;29.40;99.90
16732;DHT22;8484;50.904;9.192;2023-06-22T09:15:03;28.50;99.90
16732;DHT22;8484;50.904;9.192;2023-06-22T09:17:30;27.80;99.90
16732;DHT22;8484;50.904;9.192;2023-06-22T09:19:57;27.80;99.90
16732;DHT22;8484;50.904;9.192;2023-06-22T09:22:24;28.60;99.90
16732;DHT22;8484;50.904;9.192;2023-06-22T09:24:54;28.90;99.90
16732;DHT22;8484;50.904;9.192;2023-06-22T09:27:23;29.00;99.90
16732;DHT22;8484;50.904;9.192;2023-06-22T09:29:50;28.80;99.90
16732;DHT22;8484;50.904;9.192;2023-06-22T09:32:19;29.10;99.90
16732;DHT22;8484;50.904;9.192;2023-06-22T09:34:46;29.40;99.90
16732;DHT22;8484;50.904;9.192;2023-06-22T09:37:13;30.10;99.90
16732;DHT22;8484;50.904;9.192;2023-06-22T09:39:40;30.40;99.90
16732;DHT22;8484;50.904;9.192;2023-06-22T09:42:08;30.20;99.90
16732;DHT22;8484;50.904;9.192;2023-06-22T09:44:36;30.00;99.90
16732;DHT22;8484;50.904;9.192;2023-06-22T09:47:04;30.60;99.90
16732;DHT22;8484;50.904;9.192;2023-06-22T09:49:31;30.40;99.90
16732;DHT22;8484;50.904;9.192;2023-06-22T09:51:58;30.40;99.90
16732;DHT22;8484;50.904;9.192;2023-06-22T09:54:25;30.90;99.90
16732;DHT22;8484;50.904;9.192;2023-06-22T09:57:05;30.40;99.90
16732;DHT22;8484;50.904;9.192;2023-06-22T09:59:37;30.30;99.90
16732;DHT22;8484;50.904;9.192;2023-06-22T10:02:06;31.10;99.90
16732;DHT22;8484;50.904;9.192;2023-06-22T10:04:33;31.90;99.90
16732;DHT22;8484;50.904;9.192;2023-06-22T10:07:00;31.80;99.90
16732;DHT22;8484;50.904;9.192;2023-06-22T10:09:27;31.30;99.90
16732;DHT22;8484;50.904;9.192;2023-06-22T10:11:54;32.00;99.90
16732;DHT22;8484;50.904;9.192;2023-06-22T10:14:21;31.70;99.90
16732;DHT22;8484;50.904;9.192;2023-06-22T10:16:52;31.90;99.90
16732;DHT22;8484;50.904;9.192;2023-06-22T10:19:19;31.70;99.90
16732;DHT22;8484;50.904;9.192;2023-06-22T10:21:46;32.00;99.90
16732;DHT22;8484;50.904;9.192;2023-06-22T10:24:13;31.90;99.90
16732;DHT22;8484;50.904;9.192;2023-06-22T10:26:40;32.80;99.90
16732;DHT22;8484;50.904;9.192;2023-06-22T10:29:07;32.90;99.90
16732;DHT22;8484;50.904;9.192;2023-06-22T10:31:34;32.40;99.90
16732;DHT22;8484;50.904;9.192;2023-06-22T10:34:02;32.40;99.90
16732;DHT22;8484;50.904;9.192;2023-06-22T10:36:33;32.00;99.90
16732;DHT22;8484;50.904;9.192;2023-06-22T10:38:59;32.30;99.90
16732;DHT22;8484;50.904;9.192;2023-06-22T10:41:28;32.90;99.90
16732;DHT22;8484;50.904;9.192;2023-06-22T10:43:56;33.20;99.90
16732;DHT22;8484;50.904;9.192;2023-06-22T10:46:24;32.50;99.90
16732;DHT22;8484;50.904;9.192;2023-06-22T10:48:51;32.60;99.90
16732;DHT22;8484;50.904;9.192;2023-06-22T10:51:22;33.40;99.60
16732;DHT22;8484;50.904;9.192;2023-06-22T10:53:49;32.20;99.00
16732;DHT22;8484;50.904;9.192;2023-06-22T10:56:16;32.30;99.40
16732;DHT22;8484;50.904;9.192;2023-06-22T10:58:45;31.50;99.80
16732;DHT22;8484;50.904;9.192;2023-06-22T11:01:12;30.70;99.90
16732;DHT22;8484;50.904;9.192;2023-06-22T11:03:39;30.70;99.90
16732;DHT22;8484;50.904;9.192;2023-06-22T11:06:06;30.50;99.90
16732;DHT22;8484;50.904;9.192;2023-06-22T11:08:34;30.20;99.90
16732;DHT22;8484;50.904;9.192;2023-06-22T11:11:01;30.50;99.90
16732;DHT22;8484;50.904;9.192;2023-06-22T11:13:28;31.00;99.90
16732;DHT22;8484;50.904;9.192;2023-06-22T11:15:55;30.60;99.90
16732;DHT22;8484;50.904;9.192;2023-06-22T11:18:22;30.10;99.90
16732;DHT22;8484;50.904;9.192;2023-06-22T11:20:51;30.20;99.90
16732;DHT22;8484;50.904;9.192;2023-06-22T11:23:18;31.00;99.90
16732;DHT22;8484;50.904;9.192;2023-06-22T11:25:47;30.70;99.90
16732;DHT22;8484;50.904;9.192;2023-06-22T11:28:14;30.50;99.90
16732;DHT22;8484;50.904;9.192;2023-06-22T11:30:41;30.30;99.90
16732;DHT22;8484;50.904;9.192;2023-06-22T11:33:08;30.50;99.90
16732;DHT22;8484;50.904;9.192;2023-06-22T11:35:35;30.90;99.90
16732;DHT22;8484;50.904;9.192;2023-06-22T11:38:01;30.70;99.90
16732;DHT22;8484;50.904;9.192;2023-06-22T11:40:30;29.70;99.90
16732;DHT22;8484;50.904;9.192;2023-06-22T11:42:59;29.70;99.90
16732;DHT22;8484;50.904;9.192;2023-06-22T11:45:27;29.90;99.90
16732;DHT22;8484;50.904;9.192;2023-06-22T11:47:54;30.00;99.90
16732;DHT22;8484;50.904;9.192;2023-06-22T11:50:24;29.60;99.90
16732;DHT22;8484;50.904;9.192;2023-06-22T11:52:51;29.20;99.90
16732;DHT22;8484;50.904;9.192;2023-06-22T11:55:18;28.80;99.90
16732;DHT22;8484;50.904;9.192;2023-06-22T11:57:54;28.80;99.90
16732;DHT22;8484;50.904;9.192;2023-06-22T12:00:23;29.50;99.90
16732;DHT22;8484;50.904;9.192;2023-06-22T12:02:51;30.50;99.90
16732;DHT22;8484;50.904;9.192;2023-06-22T12:05:18;31.10;99.90
16732;DHT22;8484;50.904;9.192;2023-06-22T12:07:46;31.20;99.90
16732;DHT22;8484;50.904;9.192;2023-06-22T12:10:13;30.60;99.90
16732;DHT22;8484;50.904;9.192;2023-06-22T12:12:41;30.80;99.90
16732;DHT22;8484;50.904;9.192;2023-06-22T12:15:09;30.80;99.90
16732;DHT22;8484;50.904;9.192;2023-06-22T12:17:38;30.80;99.90
16732;DHT22;8484;50.904;9.192;2023-06-22T12:20:06;30.60;99.90
16732;DHT22;8484;50.904;9.192;2023-06-22T12:22:34;31.10;99.90
16732;DHT22;8484;50.904;9.192;2023-06-22T12:25:05;31.30;99.10
16732;DHT22;8484;50.904;9.192;2023-06-22T12:27:33;31.20;99.90
16732;DHT22;8484;50.904;9.192;2023-06-22T12:30:00;31.70;99.20
16732;DHT22;8484;50.904;9.192;2023-06-22T12:32:28;31.00;99.90
16732;DHT22;8484;50.904;9.192;2023-06-22T12:34:57;31.20;99.90
16732;DHT22;8484;50.904;9.192;2023-06-22T12:37:27;31.00;99.90
16732;DHT22;8484;50.904;9.192;2023-06-22T12:39:54;31.10;99.90
16732;DHT22;8484;50.904;9.192;2023-06-22T12:42:21;31.00;99.90
16732;DHT22;8484;50.904;9.192;2023-06-22T12:44:48;31.00;99.90
16732;DHT22;8484;50.904;9.192;2023-06-22T12:47:15;31.30;99.90
16732;DHT22;8484;50.904;9.192;2023-06-22T12:49:42;31.70;99.80
16732;DHT22;8484;50.904;9.192;2023-06-22T12:52:10;32.30;99.90
16732;DHT22;8484;50.904;9.192;2023-06-22T12:54:37;32.30;99.50
16732;DHT22;8484;50.904;9.192;2023-06-22T12:57:05;32.60;97.70
16732;DHT22;8484;50.904;9.192;2023-06-22T12:59:32;32.30;97.40
16732;DHT22;8484;50.904;9.192;2023-06-22T13:01:59;32.20;98.80
16732;DHT22;8484;50.904;9.192;2023-06-22T13:04:26;32.70;98.20
16732;DHT22;8484;50.904;9.192;2023-06-22T13:06:53;32.80;98.10
16732;DHT22;8484;50.904;9.192;2023-06-22T13:09:21;32.50;97.30
16732;DHT22;8484;50.904;9.192;2023-06-22T13:11:48;32.00;97.50
16732;DHT22;8484;50.904;9.192;2023-06-22T13:14:15;31.60;97.20
16732;DHT22;8484;50.904;9.192;2023-06-22T13:16:43;31.60;97.50
16732;DHT22;8484;50.904;9.192;2023-06-22T13:19:13;31.80;96.20
16732;DHT22;8484;50.904;9.192;2023-06-22T13:21:40;31.60;96.80
16732;DHT22;8484;50.904;9.192;2023-06-22T13:24:07;31.60;97.50
16732;DHT22;8484;50.904;9.192;2023-06-22T13:26:35;31.60;96.10
16732;DHT22;8484;50.904;9.192;2023-06-22T13:29:02;31.90;96.00
16732;DHT22;8484;50.904;9.192;2023-06-22T13:31:29;31.60;96.90
16732;DHT22;8484;50.904;9.192;2023-06-22T13:33:56;31.60;95.60
16732;DHT22;8484;50.904;9.192;2023-06-22T13:36:23;31.70;96.40
16732;DHT22;8484;50.904;9.192;2023-06-22T13:38:50;31.50;95.90
16732;DHT22;8484;50.904;9.192;2023-06-22T13:41:17;31.70;95.30
16732;DHT22;8484;50.904;9.192;2023-06-22T13:43:46;31.70;95.20
16732;DHT22;8484;50.904;9.192;2023-06-22T13:46:13;31.60;95.30
16732;DHT22;8484;50.904;9.192;2023-06-22T13:48:39;31.60;94.10
16732;DHT22;8484;50.904;9.192;2023-06-22T13:51:06;31.80;94.10
16732;DHT22;8484;50.904;9.192;2023-06-22T13:53:33;31.60;95.90
16732;DHT22;8484;50.904;9.192;2023-06-22T13:56:00;31.40;95.20
16732;DHT22;8484;50.904;9.192;2023-06-22T13:58:29;31.20;94.30
16732;DHT22;8484;50.904;9.192;2023-06-22T14:00:57;31.50;94.50
16732;DHT22;8484;50.904;9.192;2023-06-22T14:03:24;31.30;96.70
16732;DHT22;8484;50.904;9.192;2023-06-22T14:05:51;30.80;95.90
16732;DHT22;8484;50.904;9.192;2023-06-22T14:08:22;30.70;95.60
16732;DHT22;8484;50.904;9.192;2023-06-22T14:10:50;30.50;95.60
16732;DHT22;8484;50.904;9.192;2023-06-22T14:13:19;30.60;96.70
16732;DHT22;8484;50.904;9.192;2023-06-22T14:15:46;30.40;95.50
16732;DHT22;8484;50.904;9.192;2023-06-22T14:18:15;30.30;96.50
16732;DHT22;8484;50.904;9.192;2023-06-22T14:20:42;30.30;96.80
16732;DHT22;8484;50.904;9.192;2023-06-22T14:23:09;30.30;97.40
16732;DHT22;8484;50.904;9.192;2023-06-22T14:25:36;30.50;96.50
16732;DHT22;8484;50.904;9.192;2023-06-22T14:28:02;30.70;96.50
16732;DHT22;8484;50.904;9.192;2023-06-22T14:30:29;30.40;97.30
16732;DHT22;8484;50.904;9.192;2023-06-22T14:32:56;30.10;96.30
16732;DHT22;8484;50.904;9.192;2023-06-22T14:35:25;30.00;96.80
16732;DHT22;8484;50.904;9.192;2023-06-22T14:37:51;30.10;98.50
16732;DHT22;8484;50.904;9.192;2023-06-22T14:40:18;30.00;99.10
16732;DHT22;8484;50.904;9.192;2023-06-22T14:42:45;29.70;99.20
16732;DHT22;8484;50.904;9.192;2023-06-22T14:45:13;29.70;99.90
16732;DHT22;8484;50.904;9.192;2023-06-22T14:47:40;29.70;99.90
16732;DHT22;8484;50.904;9.192;2023-06-22T14:50:07;29.80;99.90
16732;DHT22;8484;50.904;9.192;2023-06-22T14:52:36;30.20;98.00
16732;DHT22;8484;50.904;9.192;2023-06-22T14:55:04;30.60;99.50
16732;DHT22;8484;50.904;9.192;2023-06-22T14:57:31;30.90;99.80
16732;DHT22;8484;50.904;9.192;2023-06-22T14:59:58;31.00;99.90
16732;DHT22;8484;50.904;9.192;2023-06-22T15:02:27;30.70;99.50
16732;DHT22;8484;50.904;9.192;2023-06-22T15:04:54;30.40;99.90
16732;DHT22;8484;50.904;9.192;2023-06-22T15:07:21;30.00;99.90
16732;DHT22;8484;50.904;9.192;2023-06-22T15:09:49;29.60;99.90
16732;DHT22;8484;50.904;9.192;2023-06-22T15:12:16;29.50;99.90
16732;DHT22;8484;50.904;9.192;2023-06-22T15:14:43;29.40;99.90
16732;DHT22;8484;50.904;9.192;2023-06-22T15:17:10;29.40;99.90
16732;DHT22;8484;50.904;9.192;2023-06-22T15:19:39;29.60;99.90
16732;DHT22;8484;50.904;9.192;2023-06-22T15:22:06;29.50;99.90
16732;DHT22;8484;50.904;9.192;2023-06-22T15:24:33;28.40;99.90
16732;DHT22;8484;50.904;9.192;2023-06-22T15:27:02;28.30;99.90
16732;DHT22;8484;50.904;9.192;2023-06-22T15:29:29;28.00;99.90
16732;DHT22;8484;50.904;9.192;2023-06-22T15:31:59;27.70;99.90
16732;DHT22;8484;50.904;9.192;2023-06-22T15:34:27;27.50;99.90
16732;DHT22;8484;50.904;9.192;2023-06-22T15:36:53;27.00;99.90
16732;DHT22;8484;50.904;9.192;2023-06-22T15:39:20;26.70;99.90
16732;DHT22;8484;50.904;9.192;2023-06-22T15:41:48;26.80;99.90
16732;DHT22;8484;50.904;9.192;2023-06-22T15:44:17;26.60;99.90
16732;DHT22;8484;50.904;9.192;2023-06-22T15:46:44;26.50;99.90
16732;DHT22;8484;50.904;9.192;2023-06-22T15:49:13;26.50;99.90